Agricola, Mississippi
Current Conditions -  °F | °C
As of 11:56 PM on Wednesday 22 Oct 2014 (Local Time) from KMOB Reporting Station
Clear Clear  
Wind Chill: 12°   Ceiling: Unl
Heat Index: 12°   Visibility: 10mi
Dew Point:   Wind: 5mph
Humidity: 77%   Direction: 20°NNE
Pressure: 30.1"   Gusts: NA
Location:  30.8443°N, 88.5703°W
Report Text: KMOB 230456Z AUTO 02004KT 10SM CLR 12/08 A3010 RMK AO2 SLP189 T01170078
Loading
Personal Weather Stations






























Interactive Weather Map
Tropical Storm Tracking
New forecast layout! Learn more

10-Day Weather Forecast

Advertisements
Track Severe Weather on mobile